ADDS METAR Data INFO
IDs: Format: Raw Decoded Include TAF

Data at: 0802 UTC 23 Jul 2018

KARA 230753Z AUTO 26005KT 10SM CLR 28/26 A2983 RMK AO2 SLP101 T02830256 $
KARA 230653Z AUTO 28007KT 10SM FEW085 FEW110 28/25 A2983 RMK AO2 SLP101 T02830250 $
KARA 230553Z AUTO 25009KT 10SM CLR 28/25 A2983 RMK AO2 RAB0458E08 SLP099 P0000 60000 T02830250 10322 20283 403560244 58015 $
KARA 230453Z AUTO 24009KT 10SM CLR 28/25 A2984 RMK AO2 SLP105 T02830250 $
KARA 230353Z AUTO 25007KT 10SM CLR 28/25 A2987 RMK AO2 SLP114 T02830250 $
KARA 230253Z AUTO 26007KT 10SM CLR 29/25 A2987 RMK AO2 SLP114 T02890250 53010 $
KARA 230153Z AUTO 25006KT 10SM CLR 29/25 A2986 RMK AO2 SLP111 T02940250 $
KARA 230053Z 26009KT 10SM CLR 31/25 A2985 RMK AO2 SLP106 T03060250 $
KARA 222353Z 25012KT 10SM CLR 32/25 A2984 RMK AO2 SLP104 T03220250 10356 20322 55011 $
KARA 222253Z 25013KT 10SM CLR 34/25 A2984 RMK AO2 SLP103 T03390250 $
KARA 222153Z 24013KT 10SM CLR 34/24 A2985 RMK AO2 SLP107 T03440239 $
KARA 222053Z 25014G19KT 10SM CLR 35/23 A2987 RMK AO2 SLP114 T03500228 56025 $
KARA 221953Z 24009KT 10SM CLR 35/24 A2989 RMK AO2 SLP121 T03500239 $
KARA 221853Z 27013G18KT 10SM CLR 34/23 A2991 RMK AO2 SLP128 T03440228 $
KARA 221753Z 30011KT 10SM CLR 34/23 A2994 RMK AO2 SLP139 T03390233 10339 20256 58007 $
KARA 221653Z 28010KT 10SM CLR 33/23 A2997 RMK AO2 SLP148 T03280233 $
KARA 221553Z 29011KT 10SM CLR 32/24 A2997 RMK AO2 SLP146 T03220244 $
KARA 221453Z 28012KT 10SM SCT019 31/24 A2997 RMK AO2 SLP147 T03060244 51005 $
KARA 221436Z 27010KT 10SM BKN016 29/25 A2997 RMK AO2 T02940250 $
KARA 221353Z 26010KT 10SM OVC012 29/26 A2997 RMK AO2 SLP146 T02890256 $
KARA 221343Z 27010G14KT 10SM BKN012 28/26 A2997 RMK AO2 T02830256 $
KARA 221253Z 27005KT 10SM CLR 27/25 A2996 RMK AO2 SLP145 T02720250 $
KARA 221153Z 23004KT 10SM CLR 26/24 A2995 RMK AO2 SLP141 T02560239 10261 20244 53009 $
KARA 221053Z 00000KT 10SM CLR 25/23 A2994 RMK AO2 SLP137 T02500233 $
KARA 220953Z AUTO 25003KT 10SM CLR 26/24 A2993 RMK AO2 SLP135 T02560239 $
KARA 220853Z AUTO 25003KT 10SM CLR 26/24 A2992 RMK AO2 SLP132 T02560239 56008 $
KARA 220753Z AUTO 23003KT 10SM CLR 26/24 A2992 RMK AO2 SLP132 T02560239 $
KARA 220653Z AUTO 23004KT 10SM CLR 26/24 A2994 RMK AO2 SLP137 T02610244 $
KARA 220553Z AUTO 23005KT 10SM CLR 26/24 A2995 RMK AO2 SLP140 T02610244 10317 20261 403440250 58002 $
KARA 220453Z AUTO 23005KT 10SM CLR 26/24 A2996 RMK AO2 SLP143 T02610244 $
KARA 220353Z AUTO 25004KT 10SM CLR 27/24 A2996 RMK AO2 SLP143 T02670239 $
KARA 220253Z AUTO 23004KT 10SM CLR 28/24 A2995 RMK AO2 SLP142 T02780239 51004 $
KARA 220153Z AUTO 24005KT 10SM CLR 28/23 A2995 RMK AO2 SLP142 T02830233 $
KARA 220053Z 24007KT 10SM CLR 30/23 A2995 RMK AO2 SLP140 T03000233 $
KARA 212353Z 23011KT 10SM CLR 32/24 A2994 RMK AO2 SLP139 T03170239 10344 20317 58005 $
KARA 212253Z 23008KT 10SM FEW036 33/24 A2995 RMK AO2 SLP140 T03280244 $
KARA 212153Z 25007KT 10SM CLR 34/22 A2996 RMK AO2 SLP144 T03390217 $
KARA 212053Z 24007KT 10SM CLR 34/23 A2996 RMK AO2 SLP144 T03440233 56017 $